Time;durP1;ratioP1;P1;durP2;ratioP2;P2;SDS_P1;SDS_P2;PMS_P1;PMS_P2;Temp;Humidity;BMP_temperature;BMP_pressure;BME280_temperature;BME280_humidity;BME280_pressure;Samples;Min_cycle;Max_cycle;Signal;HPM_P1;HPM_P2
2022/03/05 00:00:39;;;;;;;23.95;10.65;;;;;;;;;;5008201;28;20030;-80
2022/03/05 00:03:04;;;;;;;21.52;10.38;;;;;;;;;;4991063;28;20025;-80
2022/03/05 00:05:30;;;;;;;23.77;11.18;;;;;;;;;;4990717;28;20022;-79
2022/03/05 00:07:55;;;;;;;23.45;9.73;;;;;;;;;;5008612;28;20432;-79
2022/03/05 00:10:21;;;;;;;18.10;8.90;;;;;;;;;;5008487;28;20023;-78
2022/03/05 00:12:50;;;;;;;17.23;8.52;;;;;;;;;;4990667;28;20447;-79
2022/03/05 00:15:16;;;;;;;19.98;9.18;;;;;;;;;;5007511;28;20045;-79
2022/03/05 00:17:41;;;;;;;16.48;7.88;;;;;;;;;;4988613;28;20026;-80
2022/03/05 00:20:07;;;;;;;12.57;7.03;;;;;;;;;;5006101;28;20061;-78
2022/03/05 00:22:32;;;;;;;14.07;6.90;;;;;;;;;;5006221;28;20078;-79
2022/03/05 00:24:58;;;;;;;13.10;7.20;;;;;;;;;;4988317;28;20027;-80
2022/03/05 00:27:23;;;;;;;13.55;7.30;;;;;;;;;;5005819;28;20087;-80
2022/03/05 00:29:49;;;;;;;13.45;6.53;;;;;;;;;;4987617;28;20026;-80
2022/03/05 00:32:14;;;;;;;12.13;6.65;;;;;;;;;;5005596;28;20046;-80
2022/03/05 00:34:39;;;;;;;12.85;6.85;;;;;;;;;;5006159;28;20026;-79
2022/03/05 00:37:05;;;;;;;13.48;7.18;;;;;;;;;;4988418;28;20022;-79
2022/03/05 00:39:31;;;;;;;13.00;6.85;;;;;;;;;;5005188;28;20061;-80
2022/03/05 00:41:56;;;;;;;13.88;6.55;;;;;;;;;;5005975;28;20034;-80
2022/03/05 00:44:21;;;;;;;13.65;7.05;;;;;;;;;;5005631;28;20038;-80
2022/03/05 00:46:47;;;;;;;13.80;6.68;;;;;;;;;;4988214;28;20452;-80
2022/03/05 00:49:12;;;;;;;13.95;6.72;;;;;;;;;;4988431;28;20416;-80
2022/03/05 00:51:37;;;;;;;14.40;7.10;;;;;;;;;;4987667;28;20372;-80
2022/03/05 00:54:03;;;;;;;17.38;7.45;;;;;;;;;;5004887;28;20042;-79
2022/03/05 00:56:28;;;;;;;12.52;6.85;;;;;;;;;;5004582;28;20404;-80
2022/03/05 00:58:54;;;;;;;16.75;7.10;;;;;;;;;;4986483;28;20049;-80
2022/03/05 01:01:19;;;;;;;13.73;6.72;;;;;;;;;;5004846;28;20065;-81
2022/03/05 01:03:44;;;;;;;12.32;6.47;;;;;;;;;;5004219;28;20029;-80
2022/03/05 01:06:09;;;;;;;13.07;6.70;;;;;;;;;;4987166;28;20030;-80
2022/03/05 01:08:35;;;;;;;14.10;7.22;;;;;;;;;;5005614;28;20041;-80
2022/03/05 01:11:00;;;;;;;12.45;7.10;;;;;;;;;;5005610;28;20142;-80
2022/03/05 01:13:25;;;;;;;13.80;6.90;;;;;;;;;;4987847;28;20026;-79
2022/03/05 01:15:51;;;;;;;15.25;7.22;;;;;;;;;;5004885;28;20027;-78
2022/03/05 01:18:16;;;;;;;13.95;7.03;;;;;;;;;;5005631;28;20109;-79
2022/03/05 01:20:41;;;;;;;12.60;6.93;;;;;;;;;;5004809;28;20029;-79
2022/03/05 01:23:06;;;;;;;11.60;6.72;;;;;;;;;;5003493;28;20053;-80
2022/03/05 01:25:32;;;;;;;10.98;6.22;;;;;;;;;;5003835;28;20030;-80
2022/03/05 01:27:57;;;;;;;13.68;6.72;;;;;;;;;;5003603;28;20045;-80
2022/03/05 01:30:22;;;;;;;13.05;6.57;;;;;;;;;;5003053;28;20045;-80
2022/03/05 01:32:47;;;;;;;13.85;7.22;;;;;;;;;;5003668;28;20022;-80
2022/03/05 01:35:13;;;;;;;14.98;6.97;;;;;;;;;;5003800;28;20031;-79
2022/03/05 01:37:38;;;;;;;13.95;7.03;;;;;;;;;;4984736;28;20022;-79
2022/03/05 01:40:04;;;;;;;13.40;7.28;;;;;;;;;;5002155;28;20030;-79
2022/03/05 01:42:29;;;;;;;14.15;6.95;;;;;;;;;;4983465;28;20090;-79
2022/03/05 01:44:55;;;;;;;15.77;8.23;;;;;;;;;;5001155;28;20072;-78
2022/03/05 01:47:20;;;;;;;13.40;7.13;;;;;;;;;;5002605;28;20030;-80
2022/03/05 01:49:45;;;;;;;14.80;7.55;;;;;;;;;;5002012;28;20030;-80
2022/03/05 01:52:11;;;;;;;18.15;8.00;;;;;;;;;;5001555;28;20424;-80
2022/03/05 01:54:38;;;;;;;18.60;8.75;;;;;;;;;;4987591;28;20026;-79
2022/03/05 01:57:04;;;;;;;20.00;9.02;;;;;;;;;;5005037;28;20153;-80
2022/03/05 01:59:29;;;;;;;17.33;8.77;;;;;;;;;;5003771;28;20027;-79
2022/03/05 02:01:54;;;;;;;16.95;8.65;;;;;;;;;;5003542;28;20065;-80
2022/03/05 02:04:20;;;;;;;15.82;8.05;;;;;;;;;;5003111;28;20034;-79
2022/03/05 02:06:45;;;;;;;16.67;8.43;;;;;;;;;;5003633;28;20036;-80
2022/03/05 02:09:10;;;;;;;21.27;9.57;;;;;;;;;;4985771;28;20025;-80
2022/03/05 02:11:35;;;;;;;25.83;9.70;;;;;;;;;;4995874;28;20038;-80
2022/03/05 02:14:01;;;;;;;18.55;9.43;;;;;;;;;;4964009;28;20023;-81
2022/03/05 02:16:26;;;;;;;20.23;9.65;;;;;;;;;;4980629;28;20032;-80
2022/03/05 02:18:55;;;;;;;23.95;10.50;;;;;;;;;;4997715;28;20387;-79
2022/03/05 02:21:22;;;;;;;20.58;10.32;;;;;;;;;;4996273;28;20032;-80
2022/03/05 02:23:47;;;;;;;17.30;9.60;;;;;;;;;;5003035;28;20447;-79
2022/03/05 02:26:13;;;;;;;18.27;9.25;;;;;;;;;;5000361;28;20026;-80
2022/03/05 02:28:38;;;;;;;20.73;10.38;;;;;;;;;;5000510;28;20026;-80
2022/03/05 02:31:04;;;;;;;24.40;10.63;;;;;;;;;;5001163;28;20033;-79
2022/03/05 02:33:29;;;;;;;24.42;10.15;;;;;;;;;;5000511;28;20022;-79
2022/03/05 02:35:55;;;;;;;24.27;10.38;;;;;;;;;;5000105;28;20036;-80
2022/03/05 02:38:22;;;;;;;24.83;10.43;;;;;;;;;;5002445;28;20106;-82
2022/03/05 02:40:49;;;;;;;21.88;10.73;;;;;;;;;;5002106;28;20109;-79
2022/03/05 02:43:15;;;;;;;20.55;10.20;;;;;;;;;;5002139;28;20029;-79
2022/03/05 02:45:41;;;;;;;20.17;10.25;;;;;;;;;;5003184;28;20026;-82
2022/03/05 02:48:09;;;;;;;19.70;10.38;;;;;;;;;;4999972;28;20025;-82
2022/03/05 02:50:35;;;;;;;22.08;10.20;;;;;;;;;;4998828;28;20038;-80
2022/03/05 02:53:00;;;;;;;18.35;9.48;;;;;;;;;;4983614;28;20029;-81
2022/03/05 02:55:26;;;;;;;21.48;10.82;;;;;;;;;;5001487;28;20061;-80
2022/03/05 02:57:51;;;;;;;18.58;9.85;;;;;;;;;;5002547;28;20030;-80
2022/03/05 03:00:17;;;;;;;20.83;10.48;;;;;;;;;;5003769;28;20082;-79
2022/03/05 03:02:45;;;;;;;21.73;10.90;;;;;;;;;;5003801;28;20015;-80
2022/03/05 03:05:10;;;;;;;25.38;10.68;;;;;;;;;;5002705;28;20030;-81
2022/03/05 03:07:36;;;;;;;20.63;10.50;;;;;;;;;;4999818;28;20038;-79
2022/03/05 03:10:02;;;;;;;19.48;10.38;;;;;;;;;;5003786;28;20023;-81
2022/03/05 03:12:27;;;;;;;22.95;10.98;;;;;;;;;;5003122;28;20041;-81
2022/03/05 03:14:53;;;;;;;24.77;10.57;;;;;;;;;;4985524;28;20029;-79
2022/03/05 03:17:18;;;;;;;25.30;10.85;;;;;;;;;;5004072;28;20026;-80
2022/03/05 03:19:43;;;;;;;20.95;10.50;;;;;;;;;;4997042;28;20153;-81
2022/03/05 03:22:09;;;;;;;18.02;10.07;;;;;;;;;;4983947;28;20491;-79
2022/03/05 03:24:34;;;;;;;21.60;9.70;;;;;;;;;;4983794;28;20485;-80
2022/03/05 03:26:59;;;;;;;20.00;10.23;;;;;;;;;;4984854;28;20061;-81
2022/03/05 03:29:25;;;;;;;21.75;10.32;;;;;;;;;;4962435;28;20033;-80
2022/03/05 03:31:50;;;;;;;21.20;10.38;;;;;;;;;;4977005;28;20030;-78
2022/03/05 03:34:15;;;;;;;20.30;9.23;;;;;;;;;;4980563;28;20042;-77
2022/03/05 03:36:40;;;;;;;21.90;10.02;;;;;;;;;;4976083;28;20030;-74
2022/03/05 03:39:06;;;;;;;18.38;10.13;;;;;;;;;;4974056;28;20030;-75
2022/03/05 03:41:31;;;;;;;20.45;9.73;;;;;;;;;;4973750;28;20107;-74
2022/03/05 03:43:56;;;;;;;18.73;9.88;;;;;;;;;;4973680;28;20030;-75
2022/03/05 03:46:21;;;;;;;16.65;9.23;;;;;;;;;;4977530;28;20035;-79
2022/03/05 03:48:47;;;;;;;24.15;10.23;;;;;;;;;;4970873;28;20027;-80
2022/03/05 03:51:12;;;;;;;16.58;9.00;;;;;;;;;;4987496;28;20027;-79
2022/03/05 03:53:37;;;;;;;23.00;10.00;;;;;;;;;;4985479;28;20069;-79
2022/03/05 03:56:03;;;;;;;17.02;9.32;;;;;;;;;;4984443;28;20023;-78
2022/03/05 03:58:28;;;;;;;21.95;9.85;;;;;;;;;;4985402;28;20495;-78
2022/03/05 04:00:54;;;;;;;21.40;9.63;;;;;;;;;;4983474;28;20498;-78
2022/03/05 04:03:19;;;;;;;17.60;8.60;;;;;;;;;;4985522;28;20429;-79
2022/03/05 04:05:44;;;;;;;17.20;8.70;;;;;;;;;;4987254;28;20026;-80
2022/03/05 04:10:53;;;;;;;17.48;8.90;;;;;;;;;;4985139;28;20106;-79
2022/03/05 04:13:18;;;;;;;18.45;8.93;;;;;;;;;;4986550;28;20018;-79
2022/03/05 04:15:45;;;;;;;15.75;8.73;;;;;;;;;;4986958;28;20027;-77
2022/03/05 04:18:10;;;;;;;16.95;8.50;;;;;;;;;;4965277;28;20034;-78
2022/03/05 04:20:35;;;;;;;20.60;8.90;;;;;;;;;;4984679;28;20030;-79
2022/03/05 04:23:01;;;;;;;15.73;8.77;;;;;;;;;;4984794;28;20026;-79
2022/03/05 04:25:27;;;;;;;15.63;8.15;;;;;;;;;;4981180;28;20042;-78
2022/03/05 04:27:52;;;;;;;18.88;7.85;;;;;;;;;;4978310;28;20118;-79
2022/03/05 04:30:18;;;;;;;15.50;8.23;;;;;;;;;;4981148;28;20066;-77
2022/03/05 04:32:43;;;;;;;20.90;8.32;;;;;;;;;;4982283;28;20604;-78
2022/03/05 04:35:09;;;;;;;16.50;8.30;;;;;;;;;;4982563;28;20463;-79
2022/03/05 04:37:34;;;;;;;17.65;8.07;;;;;;;;;;4983102;28;20106;-78
2022/03/05 04:40:00;;;;;;;19.05;8.60;;;;;;;;;;4985281;28;20066;-79
2022/03/05 04:42:25;;;;;;;17.88;8.57;;;;;;;;;;4986656;28;20055;-79
2022/03/05 04:44:50;;;;;;;14.07;7.45;;;;;;;;;;4983683;28;20038;-79
2022/03/05 04:47:16;;;;;;;15.20;8.68;;;;;;;;;;4984599;28;20030;-78
2022/03/05 04:49:41;;;;;;;15.50;8.32;;;;;;;;;;4984262;28;20030;-78
2022/03/05 04:52:06;;;;;;;18.13;7.95;;;;;;;;;;4984048;28;20045;-79
2022/03/05 04:54:33;;;;;;;14.95;7.32;;;;;;;;;;4985726;28;20026;-78
2022/03/05 04:56:58;;;;;;;14.57;7.72;;;;;;;;;;4983726;28;20035;-79
2022/03/05 04:59:24;;;;;;;24.08;8.50;;;;;;;;;;4985286;28;20050;-79
2022/03/05 05:01:49;;;;;;;15.93;8.13;;;;;;;;;;4969662;28;20022;-79
2022/03/05 05:04:14;;;;;;;16.85;8.10;;;;;;;;;;4968878;28;20034;-79
2022/03/05 05:06:39;;;;;;;16.95;8.13;;;;;;;;;;4988013;28;20042;-79
2022/03/05 05:09:05;;;;;;;15.90;8.10;;;;;;;;;;4986285;28;20404;-78
2022/03/05 05:11:30;;;;;;;18.30;8.38;;;;;;;;;;4987586;28;20396;-79
2022/03/05 05:13:55;;;;;;;15.52;8.27;;;;;;;;;;4987144;28;20023;-78
2022/03/05 05:16:20;;;;;;;20.00;8.48;;;;;;;;;;4987156;28;20027;-80
2022/03/05 05:21:30;;;;;;;13.93;7.43;;;;;;;;;;4987206;28;20045;-78
2022/03/05 05:23:55;;;;;;;14.68;7.93;;;;;;;;;;4965987;28;20050;-78
2022/03/05 05:26:20;;;;;;;20.13;8.32;;;;;;;;;;4984725;28;20472;-78
2022/03/05 05:28:46;;;;;;;30.58;12.23;;;;;;;;;;4985578;28;20444;-79
2022/03/05 05:31:11;;;;;;;29.60;12.35;;;;;;;;;;4986717;28;20035;-79
2022/03/05 05:33:39;;;;;;;21.70;10.43;;;;;;;;;;4985591;28;20054;-78
2022/03/05 05:36:04;;;;;;;19.27;9.35;;;;;;;;;;4983400;28;20027;-78
2022/03/05 05:38:31;;;;;;;21.05;9.13;;;;;;;;;;4985042;28;20161;-79
2022/03/05 05:40:56;;;;;;;17.00;8.13;;;;;;;;;;4984710;28;20026;-79
2022/03/05 05:43:21;;;;;;;15.63;8.30;;;;;;;;;;4986684;28;20058;-80
2022/03/05 05:45:46;;;;;;;19.15;8.10;;;;;;;;;;4986694;28;20457;-79
2022/03/05 05:48:12;;;;;;;16.13;8.20;;;;;;;;;;4985043;28;20034;-78
2022/03/05 05:50:37;;;;;;;15.68;8.07;;;;;;;;;;4967839;28;20031;-78
2022/03/05 05:53:02;;;;;;;18.20;8.15;;;;;;;;;;4967660;28;20077;-79
2022/03/05 05:55:27;;;;;;;15.38;7.80;;;;;;;;;;4985818;28;20027;-79
2022/03/05 05:57:53;;;;;;;18.67;8.23;;;;;;;;;;4986038;28;20023;-78
2022/03/05 06:00:18;;;;;;;14.40;7.40;;;;;;;;;;4987189;28;20487;-80
2022/03/05 06:02:43;;;;;;;17.10;8.38;;;;;;;;;;4986084;28;20023;-78
2022/03/05 06:05:09;;;;;;;16.15;8.40;;;;;;;;;;4985856;28;20033;-79
2022/03/05 06:07:34;;;;;;;16.48;8.02;;;;;;;;;;4986419;28;20031;-79
2022/03/05 06:09:59;;;;;;;15.73;7.93;;;;;;;;;;4984701;28;20033;-78
2022/03/05 06:12:25;;;;;;;14.88;7.75;;;;;;;;;;4984945;28;20031;-78
2022/03/05 06:14:50;;;;;;;14.00;7.72;;;;;;;;;;4968388;28;20029;-78
2022/03/05 06:17:15;;;;;;;15.93;8.05;;;;;;;;;;4968674;28;20037;-79
2022/03/05 06:19:41;;;;;;;15.18;7.03;;;;;;;;;;4985284;28;20026;-79
2022/03/05 06:22:06;;;;;;;13.93;7.70;;;;;;;;;;4985154;28;20029;-77
2022/03/05 06:24:32;;;;;;;15.57;8.00;;;;;;;;;;4981455;28;20030;-78
2022/03/05 06:26:57;;;;;;;18.17;7.88;;;;;;;;;;4980740;28;20027;-79
2022/03/05 06:29:22;;;;;;;20.45;8.75;;;;;;;;;;4980298;28;20056;-78
2022/03/05 06:31:47;;;;;;;16.95;7.43;;;;;;;;;;4980755;28;20046;-78
2022/03/05 06:34:13;;;;;;;14.80;7.55;;;;;;;;;;4981221;28;20037;-78
2022/03/05 06:36:38;;;;;;;18.58;8.73;;;;;;;;;;4981564;28;20062;-78
2022/03/05 06:39:03;;;;;;;14.32;8.02;;;;;;;;;;4963699;28;20027;-77
2022/03/05 06:41:28;;;;;;;14.25;7.75;;;;;;;;;;4979055;28;20177;-78
2022/03/05 06:43:54;;;;;;;13.70;7.57;;;;;;;;;;4976732;28;20019;-79
2022/03/05 06:46:19;;;;;;;12.43;7.25;;;;;;;;;;4958784;28;20031;-78
2022/03/05 06:48:46;;;;;;;13.70;7.65;;;;;;;;;;4976807;28;20034;-78
2022/03/05 06:51:11;;;;;;;13.18;7.78;;;;;;;;;;4978120;28;20514;-79
2022/03/05 06:53:37;;;;;;;15.02;7.50;;;;;;;;;;4979177;28;20022;-78
2022/03/05 06:56:02;;;;;;;16.92;8.82;;;;;;;;;;4980498;28;20027;-77
2022/03/05 06:58:28;;;;;;;19.70;7.50;;;;;;;;;;4979430;28;20401;-79
2022/03/05 07:00:53;;;;;;;16.40;8.82;;;;;;;;;;4963205;28;20045;-78
2022/03/05 07:03:18;;;;;;;20.48;8.88;;;;;;;;;;4981266;28;20045;-79
2022/03/05 07:05:43;;;;;;;15.13;7.80;;;;;;;;;;4983894;28;20035;-79
2022/03/05 07:08:08;;;;;;;14.88;8.48;;;;;;;;;;4983642;28;20035;-78
2022/03/05 07:10:34;;;;;;;18.00;9.13;;;;;;;;;;4964775;28;20027;-78
2022/03/05 07:12:59;;;;;;;20.02;8.57;;;;;;;;;;4980403;28;20070;-78
2022/03/05 07:15:24;;;;;;;17.90;8.48;;;;;;;;;;4979836;28;20035;-80
2022/03/05 07:17:51;;;;;;;15.38;8.00;;;;;;;;;;4980849;28;20027;-78
2022/03/05 07:20:17;;;;;;;15.55;8.52;;;;;;;;;;4983754;28;20073;-78
2022/03/05 07:22:42;;;;;;;17.48;8.80;;;;;;;;;;4985515;28;20027;-79
2022/03/05 07:25:08;;;;;;;17.75;8.50;;;;;;;;;;4985808;28;20031;-79
2022/03/05 07:27:34;;;;;;;15.00;8.65;;;;;;;;;;4986265;28;20093;-79
2022/03/05 07:29:59;;;;;;;17.13;8.75;;;;;;;;;;4987858;28;20488;-78
2022/03/05 07:32:25;;;;;;;16.17;8.23;;;;;;;;;;4971325;28;20018;-78
2022/03/05 07:34:50;;;;;;;18.15;8.98;;;;;;;;;;4970422;28;20023;-78
2022/03/05 07:37:15;;;;;;;17.80;9.10;;;;;;;;;;4987961;28;20038;-79
2022/03/05 07:39:40;;;;;;;18.88;9.15;;;;;;;;;;4987948;28;20031;-79
2022/03/05 07:42:06;;;;;;;18.38;9.32;;;;;;;;;;4989313;28;20033;-80
2022/03/05 07:44:31;;;;;;;21.80;8.73;;;;;;;;;;4986566;28;20105;-78
2022/03/05 07:46:57;;;;;;;18.50;9.07;;;;;;;;;;4986351;28;20046;-78
2022/03/05 07:49:22;;;;;;;14.43;8.38;;;;;;;;;;4984792;28;20033;-80
2022/03/05 07:51:47;;;;;;;20.33;9.75;;;;;;;;;;4986955;28;20035;-79
2022/03/05 07:54:12;;;;;;;15.00;8.82;;;;;;;;;;4985481;28;20065;-80
2022/03/05 07:56:38;;;;;;;17.27;8.63;;;;;;;;;;4985843;28;20053;-79
2022/03/05 07:59:03;;;;;;;15.07;8.50;;;;;;;;;;4987398;28;20023;-82
2022/03/05 08:01:28;;;;;;;17.60;9.18;;;;;;;;;;4984718;28;20027;-79
2022/03/05 08:03:53;;;;;;;15.18;8.73;;;;;;;;;;4986079;28;20029;-79
2022/03/05 08:06:19;;;;;;;18.95;9.20;;;;;;;;;;4987964;28;20027;-78
2022/03/05 08:08:44;;;;;;;16.75;8.40;;;;;;;;;;4989057;28;20026;-79
2022/03/05 08:11:11;;;;;;;18.90;9.63;;;;;;;;;;4989713;28;20033;-79
2022/03/05 08:13:36;;;;;;;19.42;9.70;;;;;;;;;;4986633;28;20041;-78
2022/03/05 08:16:02;;;;;;;16.95;9.07;;;;;;;;;;4978253;28;20189;-76
2022/03/05 08:18:27;;;;;;;17.08;8.73;;;;;;;;;;4959749;28;20075;-76
2022/03/05 08:20:52;;;;;;;15.45;8.02;;;;;;;;;;4976381;28;20047;-75
2022/03/05 08:23:17;;;;;;;16.38;8.57;;;;;;;;;;4976619;28;20027;-75
2022/03/05 08:25:43;;;;;;;16.27;8.65;;;;;;;;;;4976591;28;20093;-74
2022/03/05 08:28:08;;;;;;;18.45;7.93;;;;;;;;;;4976306;28;20073;-78
2022/03/05 08:30:33;;;;;;;15.27;7.63;;;;;;;;;;4965826;28;20031;-79
2022/03/05 08:32:59;;;;;;;14.93;8.13;;;;;;;;;;4982906;28;20023;-80
2022/03/05 08:35:24;;;;;;;15.20;7.28;;;;;;;;;;4983071;28;20029;-78
2022/03/05 08:37:51;;;;;;;15.32;8.35;;;;;;;;;;4969470;28;20027;-78
2022/03/05 08:40:17;;;;;;;12.70;7.30;;;;;;;;;;4984064;28;20035;-78
2022/03/05 08:42:44;;;;;;;16.15;8.35;;;;;;;;;;4979527;28;20030;-78
2022/03/05 08:45:10;;;;;;;15.73;8.02;;;;;;;;;;4983506;28;20062;-79
2022/03/05 08:47:35;;;;;;;14.00;8.18;;;;;;;;;;4981228;28;20113;-80
2022/03/05 08:50:07;;;;;;;15.68;8.35;;;;;;;;;;4983677;28;20069;-78
2022/03/05 08:52:36;;;;;;;14.93;8.23;;;;;;;;;;4971643;28;20023;-77
2022/03/05 08:55:06;;;;;;;14.80;8.82;;;;;;;;;;4980855;28;20429;-77
2022/03/05 08:57:31;;;;;;;15.38;8.65;;;;;;;;;;4978553;28;20039;-78
2022/03/05 08:59:57;;;;;;;16.60;8.82;;;;;;;;;;4980261;28;20033;-79
2022/03/05 09:02:22;;;;;;;19.40;8.75;;;;;;;;;;4986600;28;20353;-79
2022/03/05 09:04:47;;;;;;;14.18;8.07;;;;;;;;;;4986026;28;20023;-79
2022/03/05 09:07:12;;;;;;;17.27;8.38;;;;;;;;;;4983836;28;20046;-79
2022/03/05 09:09:38;;;;;;;14.63;7.32;;;;;;;;;;4980995;28;20030;-77
2022/03/05 09:12:03;;;;;;;16.30;8.32;;;;;;;;;;4970741;28;20022;-79
2022/03/05 09:14:28;;;;;;;14.82;8.23;;;;;;;;;;4986988;28;20031;-79
2022/03/05 09:16:56;;;;;;;16.25;8.10;;;;;;;;;;4965580;28;20181;-79
2022/03/05 09:19:21;;;;;;;12.85;7.70;;;;;;;;;;4980779;28;20023;-78
2022/03/05 09:21:47;;;;;;;17.52;8.23;;;;;;;;;;4980104;28;20511;-78
2022/03/05 09:24:12;;;;;;;21.05;9.68;;;;;;;;;;4960835;28;20023;-77
2022/03/05 09:26:37;;;;;;;17.20;9.27;;;;;;;;;;4978111;28;20043;-78
2022/03/05 09:29:02;;;;;;;20.70;9.90;;;;;;;;;;4979001;28;20045;-78
2022/03/05 09:31:28;;;;;;;20.42;8.50;;;;;;;;;;4980359;28;20022;-79
2022/03/05 09:33:53;;;;;;;15.20;7.97;;;;;;;;;;4981637;28;20034;-78
2022/03/05 09:36:18;;;;;;;15.50;8.55;;;;;;;;;;4981754;28;20022;-79
2022/03/05 09:38:43;;;;;;;13.15;7.13;;;;;;;;;;4988119;28;20030;-79
2022/03/05 09:41:09;;;;;;;12.07;7.47;;;;;;;;;;4969270;28;20077;-78
2022/03/05 09:43:35;;;;;;;13.93;7.72;;;;;;;;;;4980908;28;20022;-79
2022/03/05 09:46:01;;;;;;;13.60;7.40;;;;;;;;;;4986011;28;20034;-79
2022/03/05 09:48:28;;;;;;;16.35;6.93;;;;;;;;;;4986813;28;20031;-79
2022/03/05 09:50:55;;;;;;;15.90;7.85;;;;;;;;;;4986217;28;20369;-79
2022/03/05 09:53:31;;;;;;;13.75;7.82;;;;;;;;;;4985163;28;20105;-79
2022/03/05 09:55:56;;;;;;;11.20;6.95;;;;;;;;;;4985025;28;20468;-78
2022/03/05 09:58:22;;;;;;;13.25;7.35;;;;;;;;;;4986546;28;20038;-79
2022/03/05 10:00:47;;;;;;;15.57;6.95;;;;;;;;;;4985127;28;20023;-78
2022/03/05 10:03:15;;;;;;;11.30;6.80;;;;;;;;;;4987047;28;20078;-79
2022/03/05 10:05:40;;;;;;;12.43;6.30;;;;;;;;;;4983810;28;20023;-78
2022/03/05 10:08:12;;;;;;;10.82;6.50;;;;;;;;;;4982908;28;20453;-78
2022/03/05 10:10:55;;;;;;;11.07;5.95;;;;;;;;;;4982701;28;20033;-79
2022/03/05 10:13:31;;;;;;;12.93;6.55;;;;;;;;;;4982071;28;20433;-80
2022/03/05 10:16:01;;;;;;;11.90;5.75;;;;;;;;;;4984399;28;20114;-79
2022/03/05 10:18:32;;;;;;;11.98;6.25;;;;;;;;;;4985243;28;20038;-78
2022/03/05 10:21:00;;;;;;;13.05;6.50;;;;;;;;;;4983240;28;20026;-79
2022/03/05 10:23:25;;;;;;;12.45;5.82;;;;;;;;;;4984089;28;20022;-79
2022/03/05 10:25:52;;;;;;;13.00;6.28;;;;;;;;;;4983625;28;20034;-79
2022/03/05 10:28:26;;;;;;;8.98;5.32;;;;;;;;;;4986546;28;20043;-80
2022/03/05 10:30:54;;;;;;;9.23;4.97;;;;;;;;;;4981736;28;20031;-78
2022/03/05 10:33:23;;;;;;;9.60;5.53;;;;;;;;;;4984011;28;20019;-80
2022/03/05 10:35:49;;;;;;;9.18;5.07;;;;;;;;;;4985105;28;20030;-79
2022/03/05 10:38:14;;;;;;;9.88;5.15;;;;;;;;;;4982413;28;20122;-80
2022/03/05 10:40:39;;;;;;;9.48;4.90;;;;;;;;;;4983329;28;20039;-79
2022/03/05 10:43:07;;;;;;;10.60;5.15;;;;;;;;;;4985493;28;20038;-79
2022/03/05 10:45:49;;;;;;;9.95;4.97;;;;;;;;;;4986246;28;20087;-79
2022/03/05 10:48:30;;;;;;;9.25;5.15;;;;;;;;;;4981707;28;20029;-78
2022/03/05 10:51:01;;;;;;;9.40;4.88;;;;;;;;;;4984243;28;20095;-79
2022/03/05 10:53:44;;;;;;;8.90;5.50;;;;;;;;;;4987447;28;20110;-79
2022/03/05 10:56:25;;;;;;;12.15;5.05;;;;;;;;;;4989783;28;20035;-78
2022/03/05 10:59:07;;;;;;;8.68;4.85;;;;;;;;;;4985801;28;20427;-79
2022/03/05 11:01:36;;;;;;;13.18;4.18;;;;;;;;;;4986321;28;20481;-80
2022/03/05 11:04:03;;;;;;;9.00;5.50;;;;;;;;;;4987571;28;20483;-80
2022/03/05 11:06:28;;;;;;;8.60;5.13;;;;;;;;;;4985952;28;20069;-79
2022/03/05 11:08:54;;;;;;;10.77;5.55;;;;;;;;;;4985883;28;20030;-79
2022/03/05 11:11:20;;;;;;;8.40;3.47;;;;;;;;;;4984458;28;20124;-79
2022/03/05 11:13:46;;;;;;;10.15;5.75;;;;;;;;;;4986052;28;20042;-78
2022/03/05 11:16:12;;;;;;;9.82;4.93;;;;;;;;;;4985458;28;20477;-78
2022/03/05 11:18:40;;;;;;;9.73;5.13;;;;;;;;;;4991131;28;20085;-79
2022/03/05 11:21:07;;;;;;;8.30;4.93;;;;;;;;;;4967871;28;20030;-78
2022/03/05 11:23:34;;;;;;;8.55;5.25;;;;;;;;;;4967229;28;20054;-79
2022/03/05 11:26:00;;;;;;;8.07;4.53;;;;;;;;;;4988681;28;20026;-79
2022/03/05 11:28:34;;;;;;;7.03;3.55;;;;;;;;;;4970458;28;20034;-78
2022/03/05 11:31:00;;;;;;;;;;;;;;;;;;4969482;28;20106;-79
2022/03/05 11:33:38;;;;;;;7.35;4.43;;;;;;;;;;4987576;28;19957;-79
2022/03/05 11:36:05;;;;;;;9.73;4.20;;;;;;;;;;4970867;28;20022;-80
2022/03/05 11:38:36;;;;;;;7.80;4.38;;;;;;;;;;4968857;28;20030;-79
2022/03/05 11:41:25;;;;;;;10.75;4.20;;;;;;;;;;4984813;28;20073;-78
2022/03/05 11:43:53;;;;;;;8.15;4.85;;;;;;;;;;4984373;28;20095;-78
2022/03/05 11:46:24;;;;;;;6.05;4.03;;;;;;;;;;4983053;28;20473;-79
2022/03/05 11:49:19;;;;;;;8.27;4.40;;;;;;;;;;4986992;28;20079;-79
2022/03/05 11:51:58;;;;;;;7.53;3.70;;;;;;;;;;4983037;28;20038;-79
2022/03/05 11:54:25;;;;;;;9.00;4.65;;;;;;;;;;4983371;28;20029;-79
2022/03/05 11:57:08;;;;;;;7.00;3.30;;;;;;;;;;4983615;28;20039;-77
2022/03/05 11:59:39;;;;;;;10.00;4.70;;;;;;;;;;4983112;28;20026;-78
2022/03/05 12:02:05;;;;;;;11.00;5.30;;;;;;;;;;4980192;28;20026;-79
2022/03/05 12:04:31;;;;;;;6.93;4.30;;;;;;;;;;4984174;28;20027;-79
2022/03/05 12:06:59;;;;;;;5.88;3.95;;;;;;;;;;4980408;28;20433;-78
2022/03/05 12:10:03;;;;;;;6.75;4.43;;;;;;;;;;4980905;28;20022;-77
2022/03/05 12:12:51;;;;;;;8.80;4.43;;;;;;;;;;4962353;28;20066;-77
2022/03/05 12:15:16;;;;;;;7.80;4.15;;;;;;;;;;4982482;28;20035;-79
2022/03/05 12:17:45;;;;;;;8.32;4.47;;;;;;;;;;4982282;28;20370;-77
2022/03/05 12:20:14;;;;;;;8.73;4.38;;;;;;;;;;4962625;28;20023;-78
2022/03/05 12:22:49;;;;;;;7.97;3.80;;;;;;;;;;4979529;28;20026;-78
2022/03/05 12:25:14;;;;;;;7.60;4.22;;;;;;;;;;4982147;28;20130;-78
2022/03/05 12:27:46;;;;;;;12.15;4.68;;;;;;;;;;4983885;28;20054;-77
2022/03/05 12:30:13;;;;;;;5.55;2.95;;;;;;;;;;4965918;28;20439;-78
2022/03/05 12:32:41;;;;;;;8.63;4.80;;;;;;;;;;4963322;28;20053;-78
2022/03/05 12:35:08;;;;;;;7.93;4.15;;;;;;;;;;4964565;28;20027;-79
2022/03/05 12:37:34;;;;;;;4.50;2.95;;;;;;;;;;4980626;28;20105;-78
2022/03/05 12:40:00;;;;;;;6.40;3.83;;;;;;;;;;4962733;28;20026;-77
2022/03/05 12:42:42;;;;;;;6.38;3.92;;;;;;;;;;4978025;28;20118;-78
2022/03/05 12:45:12;;;;;;;5.00;3.05;;;;;;;;;;4979687;28;20046;-78
2022/03/05 12:47:37;;;;;;;8.98;4.40;;;;;;;;;;4979458;28;20472;-78
2022/03/05 12:50:26;;;;;;;7.35;3.92;;;;;;;;;;4978918;28;20030;-77
2022/03/05 12:52:55;;;;;;;7.57;3.97;;;;;;;;;;4962877;28;20023;-79
2022/03/05 12:55:20;;;;;;;5.97;4.18;;;;;;;;;;4962870;28;20027;-78
2022/03/05 12:57:46;;;;;;;9.02;4.00;;;;;;;;;;4979975;28;20101;-78
2022/03/05 13:00:12;;;;;;;5.80;3.65;;;;;;;;;;4980097;28;20033;-77
2022/03/05 13:02:37;;;;;;;7.32;3.63;;;;;;;;;;4963195;28;20035;-78
2022/03/05 13:05:16;;;;;;;5.60;3.88;;;;;;;;;;4979265;28;20106;-78
2022/03/05 13:07:41;;;;;;;6.53;3.75;;;;;;;;;;4979941;28;20034;-78
2022/03/05 13:10:10;;;;;;;7.32;3.88;;;;;;;;;;4983792;28;20058;-78
2022/03/05 13:12:37;;;;;;;6.53;3.47;;;;;;;;;;4981288;28;20026;-78
2022/03/05 13:15:03;;;;;;;7.32;3.08;;;;;;;;;;4965813;28;20031;-78
2022/03/05 13:17:28;;;;;;;5.38;2.90;;;;;;;;;;4979716;28;20030;-78
2022/03/05 13:20:02;;;;;;;5.35;3.10;;;;;;;;;;4978204;28;20509;-77
2022/03/05 13:22:28;;;;;;;6.95;3.55;;;;;;;;;;4979397;28;20122;-78
2022/03/05 13:24:54;;;;;;;4.90;2.90;;;;;;;;;;4978379;28;20054;-77
2022/03/05 13:27:24;;;;;;;4.47;2.88;;;;;;;;;;4980889;28;20034;-78
2022/03/05 13:29:51;;;;;;;7.05;3.13;;;;;;;;;;4961755;28;20510;-78
2022/03/05 13:32:17;;;;;;;4.88;2.67;;;;;;;;;;4977879;28;20027;-78
2022/03/05 13:34:42;;;;;;;6.03;3.10;;;;;;;;;;4977625;28;20050;-78
2022/03/05 13:37:09;;;;;;;5.32;2.58;;;;;;;;;;4978033;28;20037;-78
2022/03/05 13:39:36;;;;;;;4.72;2.83;;;;;;;;;;4979054;28;20031;-78
2022/03/05 13:42:10;;;;;;;5.90;2.42;;;;;;;;;;4979164;28;20031;-79
2022/03/05 13:44:37;;;;;;;5.20;2.40;;;;;;;;;;4978563;28;20035;-78
2022/03/05 13:47:06;;;;;;;3.88;2.50;;;;;;;;;;4978338;28;20034;-78
2022/03/05 13:49:32;;;;;;;6.80;2.88;;;;;;;;;;4961413;28;20022;-78
2022/03/05 13:51:59;;;;;;;4.88;2.78;;;;;;;;;;4977817;28;20058;-78
2022/03/05 13:54:39;;;;;;;3.75;2.33;;;;;;;;;;4977161;28;20106;-78
2022/03/05 13:57:10;;;;;;;6.50;2.55;;;;;;;;;;4976166;28;20023;-78
2022/03/05 13:59:44;;;;;;;4.80;2.53;;;;;;;;;;4959236;28;20456;-78
2022/03/05 14:02:11;;;;;;;5.53;2.78;;;;;;;;;;4978778;28;20032;-79
2022/03/05 14:04:56;;;;;;;3.95;2.35;;;;;;;;;;4978606;28;20032;-78
2022/03/05 14:07:21;;;;;;;3.75;2.03;;;;;;;;;;4981069;28;20027;-78
2022/03/05 14:09:46;;;;;;;3.03;2.03;;;;;;;;;;4985288;28;20026;-79
2022/03/05 14:12:13;;;;;;;3.65;2.13;;;;;;;;;;4985174;28;20027;-78
2022/03/05 14:14:50;;;;;;;5.32;2.63;;;;;;;;;;4984097;28;20027;-78
2022/03/05 14:17:46;;;;;;;6.00;2.97;;;;;;;;;;4983039;28;20150;-77
2022/03/05 14:20:16;;;;;;;8.63;3.33;;;;;;;;;;4952631;28;20181;-77
2022/03/05 14:22:48;;;;;;;5.25;3.25;;;;;;;;;;4983217;28;20037;-78
2022/03/05 14:25:26;;;;;;;5.40;3.22;;;;;;;;;;4983264;28;20083;-78
2022/03/05 14:27:53;;;;;;;7.93;3.95;;;;;;;;;;4985252;28;20042;-79
2022/03/05 14:30:20;;;;;;;7.03;3.90;;;;;;;;;;4981873;28;20086;-78
2022/03/05 14:32:45;;;;;;;8.32;4.20;;;;;;;;;;4980124;28;20026;-77
2022/03/05 14:35:12;;;;;;;7.57;4.20;;;;;;;;;;4983829;28;20026;-78
2022/03/05 14:37:39;;;;;;;8.65;4.85;;;;;;;;;;4966159;28;20085;-78